sensor_id;sensor_type;location;lat;lon;timestamp;temperature;humidity
48744;DHT22;34538;48.836;9.174;2022-12-07T00:01:25;4.40;99.90
48744;DHT22;34538;48.836;9.174;2022-12-07T00:03:56;4.40;99.90
48744;DHT22;34538;48.836;9.174;2022-12-07T00:06:29;4.50;99.90
48744;DHT22;34538;48.836;9.174;2022-12-07T00:08:56;4.50;99.90
48744;DHT22;34538;48.836;9.174;2022-12-07T00:11:23;4.40;99.90
48744;DHT22;34538;48.836;9.174;2022-12-07T00:13:52;4.40;99.90
48744;DHT22;34538;48.836;9.174;2022-12-07T00:16:20;4.40;99.90
48744;DHT22;34538;48.836;9.174;2022-12-07T00:18:47;4.50;99.90
48744;DHT22;34538;48.836;9.174;2022-12-07T00:21:17;4.40;99.90
48744;DHT22;34538;48.836;9.174;2022-12-07T00:23:46;4.50;99.90
48744;DHT22;34538;48.836;9.174;2022-12-07T00:26:14;4.40;99.90
48744;DHT22;34538;48.836;9.174;2022-12-07T00:28:44;4.50;99.90
48744;DHT22;34538;48.836;9.174;2022-12-07T00:31:12;4.40;99.90
48744;DHT22;34538;48.836;9.174;2022-12-07T00:33:40;4.40;99.90
48744;DHT22;34538;48.836;9.174;2022-12-07T00:36:09;4.50;99.90
48744;DHT22;34538;48.836;9.174;2022-12-07T00:38:38;4.40;99.90
48744;DHT22;34538;48.836;9.174;2022-12-07T00:41:08;4.50;99.90
48744;DHT22;34538;48.836;9.174;2022-12-07T00:43:36;4.40;99.90
48744;DHT22;34538;48.836;9.174;2022-12-07T00:46:03;4.50;99.90
48744;DHT22;34538;48.836;9.174;2022-12-07T00:48:30;4.50;99.90
48744;DHT22;34538;48.836;9.174;2022-12-07T00:50:57;4.40;99.90
48744;DHT22;34538;48.836;9.174;2022-12-07T00:53:24;4.40;99.90
48744;DHT22;34538;48.836;9.174;2022-12-07T00:55:52;4.40;99.90
48744;DHT22;34538;48.836;9.174;2022-12-07T00:58:21;4.40;99.90
48744;DHT22;34538;48.836;9.174;2022-12-07T01:00:48;4.40;99.90
48744;DHT22;34538;48.836;9.174;2022-12-07T01:03:16;4.30;99.90
48744;DHT22;34538;48.836;9.174;2022-12-07T01:05:49;4.30;99.90
48744;DHT22;34538;48.836;9.174;2022-12-07T01:08:16;4.30;99.90
48744;DHT22;34538;48.836;9.174;2022-12-07T01:10:43;4.30;99.90
48744;DHT22;34538;48.836;9.174;2022-12-07T01:13:11;4.30;99.90
48744;DHT22;34538;48.836;9.174;2022-12-07T01:15:39;4.30;99.90
48744;DHT22;34538;48.836;9.174;2022-12-07T01:18:06;4.30;99.90
48744;DHT22;34538;48.836;9.174;2022-12-07T01:20:33;4.30;99.90
48744;DHT22;34538;48.836;9.174;2022-12-07T01:23:00;4.30;99.90
48744;DHT22;34538;48.836;9.174;2022-12-07T01:25:27;4.30;99.90
48744;DHT22;34538;48.836;9.174;2022-12-07T01:27:54;4.20;99.90
48744;DHT22;34538;48.836;9.174;2022-12-07T01:30:22;4.20;99.90
48744;DHT22;34538;48.836;9.174;2022-12-07T01:32:49;4.20;99.90
48744;DHT22;34538;48.836;9.174;2022-12-07T01:35:16;4.30;99.90
48744;DHT22;34538;48.836;9.174;2022-12-07T01:37:43;4.20;99.90
48744;DHT22;34538;48.836;9.174;2022-12-07T01:40:10;4.20;99.90
48744;DHT22;34538;48.836;9.174;2022-12-07T01:42:37;4.20;99.90
48744;DHT22;34538;48.836;9.174;2022-12-07T01:48:06;4.20;99.90
48744;DHT22;34538;48.836;9.174;2022-12-07T01:50:34;4.20;99.90
48744;DHT22;34538;48.836;9.174;2022-12-07T01:53:03;4.20;99.90
48744;DHT22;34538;48.836;9.174;2022-12-07T01:55:32;4.20;99.90
48744;DHT22;34538;48.836;9.174;2022-12-07T01:57:59;4.20;99.90
48744;DHT22;34538;48.836;9.174;2022-12-07T02:00:26;4.20;99.90
48744;DHT22;34538;48.836;9.174;2022-12-07T02:02:55;4.20;99.90
48744;DHT22;34538;48.836;9.174;2022-12-07T02:05:24;4.20;99.90
48744;DHT22;34538;48.836;9.174;2022-12-07T02:07:53;4.20;99.90
48744;DHT22;34538;48.836;9.174;2022-12-07T02:10:23;4.20;99.90
48744;DHT22;34538;48.836;9.174;2022-12-07T02:12:53;4.20;99.90
48744;DHT22;34538;48.836;9.174;2022-12-07T02:15:26;4.20;99.90
48744;DHT22;34538;48.836;9.174;2022-12-07T02:18:01;4.20;99.90
48744;DHT22;34538;48.836;9.174;2022-12-07T02:20:33;4.20;99.90
48744;DHT22;34538;48.836;9.174;2022-12-07T02:26:13;4.20;99.90
48744;DHT22;34538;48.836;9.174;2022-12-07T02:29:00;4.20;99.90
48744;DHT22;34538;48.836;9.174;2022-12-07T02:31:33;4.20;99.90
48744;DHT22;34538;48.836;9.174;2022-12-07T02:34:05;4.20;99.90
48744;DHT22;34538;48.836;9.174;2022-12-07T02:36:37;4.20;99.90
48744;DHT22;34538;48.836;9.174;2022-12-07T02:39:08;4.10;99.90
48744;DHT22;34538;48.836;9.174;2022-12-07T02:41:42;4.20;99.90
48744;DHT22;34538;48.836;9.174;2022-12-07T02:44:14;4.20;99.90
48744;DHT22;34538;48.836;9.174;2022-12-07T02:46:44;4.20;99.90
48744;DHT22;34538;48.836;9.174;2022-12-07T02:49:13;4.20;99.90
48744;DHT22;34538;48.836;9.174;2022-12-07T02:51:42;4.20;99.90
48744;DHT22;34538;48.836;9.174;2022-12-07T02:54:11;4.20;99.90
48744;DHT22;34538;48.836;9.174;2022-12-07T02:56:43;4.20;99.90
48744;DHT22;34538;48.836;9.174;2022-12-07T02:59:21;4.20;99.90
48744;DHT22;34538;48.836;9.174;2022-12-07T03:01:59;4.20;99.90
48744;DHT22;34538;48.836;9.174;2022-12-07T03:04:40;4.20;99.90
48744;DHT22;34538;48.836;9.174;2022-12-07T03:07:14;4.20;99.90
48744;DHT22;34538;48.836;9.174;2022-12-07T03:09:50;4.20;99.90
48744;DHT22;34538;48.836;9.174;2022-12-07T03:12:22;4.20;99.90
48744;DHT22;34538;48.836;9.174;2022-12-07T03:15:00;4.20;99.90
48744;DHT22;34538;48.836;9.174;2022-12-07T03:17:30;4.10;99.90
48744;DHT22;34538;48.836;9.174;2022-12-07T03:20:02;4.10;99.90
48744;DHT22;34538;48.836;9.174;2022-12-07T03:22:32;4.10;99.90
48744;DHT22;34538;48.836;9.174;2022-12-07T03:25:04;4.10;99.90
48744;DHT22;34538;48.836;9.174;2022-12-07T03:27:37;4.10;99.90
48744;DHT22;34538;48.836;9.174;2022-12-07T03:30:08;4.10;99.90
48744;DHT22;34538;48.836;9.174;2022-12-07T03:32:36;4.10;99.90
48744;DHT22;34538;48.836;9.174;2022-12-07T03:35:09;4.10;99.90
48744;DHT22;34538;48.836;9.174;2022-12-07T03:37:41;4.10;99.90
48744;DHT22;34538;48.836;9.174;2022-12-07T03:40:14;4.10;99.90
48744;DHT22;34538;48.836;9.174;2022-12-07T03:42:43;4.00;99.90
48744;DHT22;34538;48.836;9.174;2022-12-07T03:45:12;4.00;99.90
48744;DHT22;34538;48.836;9.174;2022-12-07T03:47:45;4.00;99.90
48744;DHT22;34538;48.836;9.174;2022-12-07T03:50:19;4.00;99.90
48744;DHT22;34538;48.836;9.174;2022-12-07T03:52:54;4.00;99.90
48744;DHT22;34538;48.836;9.174;2022-12-07T03:55:26;3.90;99.90
48744;DHT22;34538;48.836;9.174;2022-12-07T03:57:56;3.90;99.90
48744;DHT22;34538;48.836;9.174;2022-12-07T04:00:26;3.90;99.90
48744;DHT22;34538;48.836;9.174;2022-12-07T04:02:53;3.80;99.90
48744;DHT22;34538;48.836;9.174;2022-12-07T04:05:20;3.80;99.90
48744;DHT22;34538;48.836;9.174;2022-12-07T04:07:47;3.80;99.90
48744;DHT22;34538;48.836;9.174;2022-12-07T04:10:14;3.70;99.90
48744;DHT22;34538;48.836;9.174;2022-12-07T04:12:41;3.60;99.90
48744;DHT22;34538;48.836;9.174;2022-12-07T04:15:08;3.60;99.90
48744;DHT22;34538;48.836;9.174;2022-12-07T04:17:38;3.60;99.90
48744;DHT22;34538;48.836;9.174;2022-12-07T04:20:06;3.50;99.90
48744;DHT22;34538;48.836;9.174;2022-12-07T04:22:33;3.50;99.90
48744;DHT22;34538;48.836;9.174;2022-12-07T04:24:59;3.40;99.90
48744;DHT22;34538;48.836;9.174;2022-12-07T04:27:26;3.40;99.90
48744;DHT22;34538;48.836;9.174;2022-12-07T04:29:53;3.40;99.90
48744;DHT22;34538;48.836;9.174;2022-12-07T04:32:21;3.30;99.90
48744;DHT22;34538;48.836;9.174;2022-12-07T04:34:49;3.40;99.90
48744;DHT22;34538;48.836;9.174;2022-12-07T04:37:16;3.40;99.90
48744;DHT22;34538;48.836;9.174;2022-12-07T04:39:43;3.40;99.90
48744;DHT22;34538;48.836;9.174;2022-12-07T04:42:11;3.50;99.90
48744;DHT22;34538;48.836;9.174;2022-12-07T04:44:38;3.50;99.90
48744;DHT22;34538;48.836;9.174;2022-12-07T04:47:05;3.50;99.90
48744;DHT22;34538;48.836;9.174;2022-12-07T04:49:32;3.50;99.90
48744;DHT22;34538;48.836;9.174;2022-12-07T04:52:01;3.50;99.90
48744;DHT22;34538;48.836;9.174;2022-12-07T04:54:28;3.40;99.90
48744;DHT22;34538;48.836;9.174;2022-12-07T04:56:54;3.40;99.90
48744;DHT22;34538;48.836;9.174;2022-12-07T04:59:21;3.30;99.90
48744;DHT22;34538;48.836;9.174;2022-12-07T05:01:48;3.40;99.90
48744;DHT22;34538;48.836;9.174;2022-12-07T05:04:15;3.30;99.90
48744;DHT22;34538;48.836;9.174;2022-12-07T05:06:43;3.30;99.90
48744;DHT22;34538;48.836;9.174;2022-12-07T05:09:11;3.20;99.90
48744;DHT22;34538;48.836;9.174;2022-12-07T05:11:38;3.20;99.90
48744;DHT22;34538;48.836;9.174;2022-12-07T05:14:08;3.10;99.90
48744;DHT22;34538;48.836;9.174;2022-12-07T05:16:36;3.10;99.90
48744;DHT22;34538;48.836;9.174;2022-12-07T05:19:03;3.10;99.90
48744;DHT22;34538;48.836;9.174;2022-12-07T05:21:30;3.10;99.90
48744;DHT22;34538;48.836;9.174;2022-12-07T05:23:57;3.10;99.90
48744;DHT22;34538;48.836;9.174;2022-12-07T05:26:26;3.10;99.90
48744;DHT22;34538;48.836;9.174;2022-12-07T05:28:54;3.10;99.90
48744;DHT22;34538;48.836;9.174;2022-12-07T05:31:21;3.10;99.90
48744;DHT22;34538;48.836;9.174;2022-12-07T05:33:48;3.10;99.90
48744;DHT22;34538;48.836;9.174;2022-12-07T05:36:15;3.00;99.90
48744;DHT22;34538;48.836;9.174;2022-12-07T05:38:42;3.00;99.90
48744;DHT22;34538;48.836;9.174;2022-12-07T05:41:12;3.00;99.90
48744;DHT22;34538;48.836;9.174;2022-12-07T05:44:01;3.00;99.90
48744;DHT22;34538;48.836;9.174;2022-12-07T05:46:27;3.00;99.90
48744;DHT22;34538;48.836;9.174;2022-12-07T05:48:54;3.00;99.90
48744;DHT22;34538;48.836;9.174;2022-12-07T05:51:21;3.00;99.90
48744;DHT22;34538;48.836;9.174;2022-12-07T05:53:48;2.90;99.90
48744;DHT22;34538;48.836;9.174;2022-12-07T05:56:15;3.00;99.90
48744;DHT22;34538;48.836;9.174;2022-12-07T05:58:42;3.00;99.90
48744;DHT22;34538;48.836;9.174;2022-12-07T06:01:27;2.90;99.90
48744;DHT22;34538;48.836;9.174;2022-12-07T06:03:54;3.00;99.90
48744;DHT22;34538;48.836;9.174;2022-12-07T06:06:21;3.00;99.90
48744;DHT22;34538;48.836;9.174;2022-12-07T06:08:48;3.00;99.90
48744;DHT22;34538;48.836;9.174;2022-12-07T06:11:15;3.00;99.90
48744;DHT22;34538;48.836;9.174;2022-12-07T06:13:59;3.00;99.90
48744;DHT22;34538;48.836;9.174;2022-12-07T06:16:27;2.90;99.90
48744;DHT22;34538;48.836;9.174;2022-12-07T06:18:54;2.90;99.90
48744;DHT22;34538;48.836;9.174;2022-12-07T06:21:21;2.90;99.90
48744;DHT22;34538;48.836;9.174;2022-12-07T06:23:47;2.90;99.90
48744;DHT22;34538;48.836;9.174;2022-12-07T06:26:14;3.00;99.90
48744;DHT22;34538;48.836;9.174;2022-12-07T06:28:41;3.00;99.90
48744;DHT22;34538;48.836;9.174;2022-12-07T06:31:09;3.00;99.90
48744;DHT22;34538;48.836;9.174;2022-12-07T06:33:37;3.10;99.90
48744;DHT22;34538;48.836;9.174;2022-12-07T06:36:05;3.10;99.90
48744;DHT22;34538;48.836;9.174;2022-12-07T06:38:32;3.10;99.90
48744;DHT22;34538;48.836;9.174;2022-12-07T06:40:58;3.10;99.90
48744;DHT22;34538;48.836;9.174;2022-12-07T06:43:25;3.10;99.90
48744;DHT22;34538;48.836;9.174;2022-12-07T06:45:52;3.10;99.90
48744;DHT22;34538;48.836;9.174;2022-12-07T06:48:20;3.10;99.90
48744;DHT22;34538;48.836;9.174;2022-12-07T06:50:48;3.10;99.90
48744;DHT22;34538;48.836;9.174;2022-12-07T06:53:15;3.10;99.90
48744;DHT22;34538;48.836;9.174;2022-12-07T06:55:42;3.10;99.90
48744;DHT22;34538;48.836;9.174;2022-12-07T06:58:09;3.20;99.90
48744;DHT22;34538;48.836;9.174;2022-12-07T07:00:36;3.20;99.90
48744;DHT22;34538;48.836;9.174;2022-12-07T07:03:03;3.20;99.90
48744;DHT22;34538;48.836;9.174;2022-12-07T07:05:29;3.20;99.90
48744;DHT22;34538;48.836;9.174;2022-12-07T07:07:58;3.20;99.90
48744;DHT22;34538;48.836;9.174;2022-12-07T07:10:24;3.30;99.90
48744;DHT22;34538;48.836;9.174;2022-12-07T07:12:51;3.30;99.90
48744;DHT22;34538;48.836;9.174;2022-12-07T07:15:18;3.30;99.90
48744;DHT22;34538;48.836;9.174;2022-12-07T07:17:45;3.40;99.90
48744;DHT22;34538;48.836;9.174;2022-12-07T07:20:12;3.30;99.90
48744;DHT22;34538;48.836;9.174;2022-12-07T07:22:39;3.40;99.90
48744;DHT22;34538;48.836;9.174;2022-12-07T07:25:08;3.40;99.90
48744;DHT22;34538;48.836;9.174;2022-12-07T07:27:35;3.40;99.90
48744;DHT22;34538;48.836;9.174;2022-12-07T07:30:02;3.40;99.90
48744;DHT22;34538;48.836;9.174;2022-12-07T07:32:29;3.50;99.90
48744;DHT22;34538;48.836;9.174;2022-12-07T07:34:56;3.50;99.90
48744;DHT22;34538;48.836;9.174;2022-12-07T07:37:23;3.50;99.90
48744;DHT22;34538;48.836;9.174;2022-12-07T07:39:50;3.50;99.90
48744;DHT22;34538;48.836;9.174;2022-12-07T07:42:18;3.60;99.90
48744;DHT22;34538;48.836;9.174;2022-12-07T07:44:46;3.60;99.90
48744;DHT22;34538;48.836;9.174;2022-12-07T07:47:13;3.70;99.90
48744;DHT22;34538;48.836;9.174;2022-12-07T07:49:40;3.70;99.90
48744;DHT22;34538;48.836;9.174;2022-12-07T07:52:07;3.70;99.90
48744;DHT22;34538;48.836;9.174;2022-12-07T07:54:34;3.80;99.90
48744;DHT22;34538;48.836;9.174;2022-12-07T07:57:01;3.80;99.90
48744;DHT22;34538;48.836;9.174;2022-12-07T07:59:29;3.80;99.90
48744;DHT22;34538;48.836;9.174;2022-12-07T08:01:56;3.90;99.90
48744;DHT22;34538;48.836;9.174;2022-12-07T08:04:22;3.90;99.90
48744;DHT22;34538;48.836;9.174;2022-12-07T08:06:49;3.90;99.90
48744;DHT22;34538;48.836;9.174;2022-12-07T08:09:16;4.00;99.90
48744;DHT22;34538;48.836;9.174;2022-12-07T08:11:43;4.00;99.90
48744;DHT22;34538;48.836;9.174;2022-12-07T08:14:11;4.00;99.90
48744;DHT22;34538;48.836;9.174;2022-12-07T08:16:39;4.00;99.90
48744;DHT22;34538;48.836;9.174;2022-12-07T08:19:06;4.10;99.90
48744;DHT22;34538;48.836;9.174;2022-12-07T08:21:33;4.10;99.90
48744;DHT22;34538;48.836;9.174;2022-12-07T08:24:00;4.10;99.90
48744;DHT22;34538;48.836;9.174;2022-12-07T08:26:27;4.20;99.90
48744;DHT22;34538;48.836;9.174;2022-12-07T08:28:54;4.20;99.90
48744;DHT22;34538;48.836;9.174;2022-12-07T08:31:21;4.30;99.90
48744;DHT22;34538;48.836;9.174;2022-12-07T08:33:49;4.30;99.90
48744;DHT22;34538;48.836;9.174;2022-12-07T08:36:17;4.30;99.90
48744;DHT22;34538;48.836;9.174;2022-12-07T08:38:44;4.40;99.90
48744;DHT22;34538;48.836;9.174;2022-12-07T08:41:11;4.40;99.90
48744;DHT22;34538;48.836;9.174;2022-12-07T08:43:38;4.40;99.90
48744;DHT22;34538;48.836;9.174;2022-12-07T08:46:08;4.50;99.90
48744;DHT22;34538;48.836;9.174;2022-12-07T08:48:39;4.60;99.90
48744;DHT22;34538;48.836;9.174;2022-12-07T08:51:09;4.60;99.90
48744;DHT22;34538;48.836;9.174;2022-12-07T08:53:37;4.70;99.90
48744;DHT22;34538;48.836;9.174;2022-12-07T08:56:05;4.70;99.90
48744;DHT22;34538;48.836;9.174;2022-12-07T08:58:33;4.70;99.90
48744;DHT22;34538;48.836;9.174;2022-12-07T09:01:00;4.80;99.90
48744;DHT22;34538;48.836;9.174;2022-12-07T09:03:27;4.80;99.90
48744;DHT22;34538;48.836;9.174;2022-12-07T09:05:54;4.80;99.90
48744;DHT22;34538;48.836;9.174;2022-12-07T09:08:26;4.90;99.90
48744;DHT22;34538;48.836;9.174;2022-12-07T09:10:54;4.90;99.90
48744;DHT22;34538;48.836;9.174;2022-12-07T09:13:21;5.00;99.90
48744;DHT22;34538;48.836;9.174;2022-12-07T09:15:48;5.00;99.90
48744;DHT22;34538;48.836;9.174;2022-12-07T09:18:15;5.00;99.90
48744;DHT22;34538;48.836;9.174;2022-12-07T09:20:42;5.10;99.90
48744;DHT22;34538;48.836;9.174;2022-12-07T09:23:08;5.10;99.90
48744;DHT22;34538;48.836;9.174;2022-12-07T09:25:37;5.10;99.90
48744;DHT22;34538;48.836;9.174;2022-12-07T09:28:04;5.20;99.90
48744;DHT22;34538;48.836;9.174;2022-12-07T09:30:31;5.20;99.90
48744;DHT22;34538;48.836;9.174;2022-12-07T09:32:58;5.30;99.90
48744;DHT22;34538;48.836;9.174;2022-12-07T09:35:25;5.30;99.90
48744;DHT22;34538;48.836;9.174;2022-12-07T09:37:52;5.40;99.90
48744;DHT22;34538;48.836;9.174;2022-12-07T09:40:20;5.50;99.90
48744;DHT22;34538;48.836;9.174;2022-12-07T09:42:52;5.50;99.90
48744;DHT22;34538;48.836;9.174;2022-12-07T09:45:23;5.60;99.90
48744;DHT22;34538;48.836;9.174;2022-12-07T09:47:50;5.60;99.90
48744;DHT22;34538;48.836;9.174;2022-12-07T09:50:21;5.70;99.90
48744;DHT22;34538;48.836;9.174;2022-12-07T09:52:50;5.70;99.90
48744;DHT22;34538;48.836;9.174;2022-12-07T09:55:22;5.70;99.90
48744;DHT22;34538;48.836;9.174;2022-12-07T09:57:52;5.80;99.90
48744;DHT22;34538;48.836;9.174;2022-12-07T10:00:22;5.80;99.90
48744;DHT22;34538;48.836;9.174;2022-12-07T10:02:53;5.80;99.90
48744;DHT22;34538;48.836;9.174;2022-12-07T10:05:25;5.90;99.90
48744;DHT22;34538;48.836;9.174;2022-12-07T10:07:54;5.90;99.90
48744;DHT22;34538;48.836;9.174;2022-12-07T10:10:24;5.90;99.90
48744;DHT22;34538;48.836;9.174;2022-12-07T10:12:56;5.90;99.90
48744;DHT22;34538;48.836;9.174;2022-12-07T10:15:36;5.90;99.90
48744;DHT22;34538;48.836;9.174;2022-12-07T10:18:17;5.90;99.90
48744;DHT22;34538;48.836;9.174;2022-12-07T10:20:45;6.00;99.90
48744;DHT22;34538;48.836;9.174;2022-12-07T10:23:15;6.00;99.90
48744;DHT22;34538;48.836;9.174;2022-12-07T10:25:42;5.90;99.90
48744;DHT22;34538;48.836;9.174;2022-12-07T10:28:16;6.00;99.90
48744;DHT22;34538;48.836;9.174;2022-12-07T10:30:52;5.90;99.90
48744;DHT22;34538;48.836;9.174;2022-12-07T10:33:34;5.90;99.90
48744;DHT22;34538;48.836;9.174;2022-12-07T10:36:17;5.90;99.90
48744;DHT22;34538;48.836;9.174;2022-12-07T10:38:46;5.90;99.90
48744;DHT22;34538;48.836;9.174;2022-12-07T10:41:13;5.90;99.90
48744;DHT22;34538;48.836;9.174;2022-12-07T10:43:49;5.90;99.90
48744;DHT22;34538;48.836;9.174;2022-12-07T10:46:42;5.90;99.90
48744;DHT22;34538;48.836;9.174;2022-12-07T10:49:27;5.90;99.90
48744;DHT22;34538;48.836;9.174;2022-12-07T10:52:00;5.90;99.90
48744;DHT22;34538;48.836;9.174;2022-12-07T10:54:40;5.80;99.90
48744;DHT22;34538;48.836;9.174;2022-12-07T10:57:27;5.80;99.90
48744;DHT22;34538;48.836;9.174;2022-12-07T11:00:08;5.80;99.90
48744;DHT22;34538;48.836;9.174;2022-12-07T11:02:54;5.90;99.90
48744;DHT22;34538;48.836;9.174;2022-12-07T11:05:28;5.90;99.90
48744;DHT22;34538;48.836;9.174;2022-12-07T11:08:03;5.90;99.90
48744;DHT22;34538;48.836;9.174;2022-12-07T11:10:40;5.90;99.90
48744;DHT22;34538;48.836;9.174;2022-12-07T11:13:24;6.00;99.90
48744;DHT22;34538;48.836;9.174;2022-12-07T11:16:03;6.00;99.90
48744;DHT22;34538;48.836;9.174;2022-12-07T11:18:40;6.00;99.90
48744;DHT22;34538;48.836;9.174;2022-12-07T11:21:17;6.00;99.90
48744;DHT22;34538;48.836;9.174;2022-12-07T11:23:49;6.00;99.90
48744;DHT22;34538;48.836;9.174;2022-12-07T11:26:28;6.00;99.90
48744;DHT22;34538;48.836;9.174;2022-12-07T11:29:10;6.00;99.90
48744;DHT22;34538;48.836;9.174;2022-12-07T11:31:53;5.90;99.90
48744;DHT22;34538;48.836;9.174;2022-12-07T11:34:26;5.80;99.90
48744;DHT22;34538;48.836;9.174;2022-12-07T11:36:57;5.70;99.90
48744;DHT22;34538;48.836;9.174;2022-12-07T11:39:30;5.60;99.90
48744;DHT22;34538;48.836;9.174;2022-12-07T11:42:03;5.50;99.90
48744;DHT22;34538;48.836;9.174;2022-12-07T11:44:36;5.50;99.90
48744;DHT22;34538;48.836;9.174;2022-12-07T11:47:11;5.40;99.90
48744;DHT22;34538;48.836;9.174;2022-12-07T11:49:44;5.40;99.90
48744;DHT22;34538;48.836;9.174;2022-12-07T11:52:20;5.40;99.90
48744;DHT22;34538;48.836;9.174;2022-12-07T11:54:50;5.40;99.90
48744;DHT22;34538;48.836;9.174;2022-12-07T11:57:24;5.40;99.90
48744;DHT22;34538;48.836;9.174;2022-12-07T11:59:58;5.40;99.90
48744;DHT22;34538;48.836;9.174;2022-12-07T12:02:37;5.40;99.90
48744;DHT22;34538;48.836;9.174;2022-12-07T12:05:13;5.40;99.90
48744;DHT22;34538;48.836;9.174;2022-12-07T12:07:43;5.50;99.90
48744;DHT22;34538;48.836;9.174;2022-12-07T12:10:18;5.50;99.90
48744;DHT22;34538;48.836;9.174;2022-12-07T12:13:02;5.50;99.90
48744;DHT22;34538;48.836;9.174;2022-12-07T12:15:43;5.50;99.90
48744;DHT22;34538;48.836;9.174;2022-12-07T12:18:40;5.60;99.90
48744;DHT22;34538;48.836;9.174;2022-12-07T12:21:10;5.60;99.90
48744;DHT22;34538;48.836;9.174;2022-12-07T12:23:42;5.60;99.90
48744;DHT22;34538;48.836;9.174;2022-12-07T12:26:16;5.70;99.90
48744;DHT22;34538;48.836;9.174;2022-12-07T12:28:52;5.70;99.90
48744;DHT22;34538;48.836;9.174;2022-12-07T12:31:36;5.70;99.90
48744;DHT22;34538;48.836;9.174;2022-12-07T12:34:30;5.70;99.90
48744;DHT22;34538;48.836;9.174;2022-12-07T12:36:57;5.80;99.90
48744;DHT22;34538;48.836;9.174;2022-12-07T12:39:25;5.70;99.90
48744;DHT22;34538;48.836;9.174;2022-12-07T12:41:57;5.70;99.90
48744;DHT22;34538;48.836;9.174;2022-12-07T12:45:04;5.70;99.90
48744;DHT22;34538;48.836;9.174;2022-12-07T12:47:56;5.80;99.90
48744;DHT22;34538;48.836;9.174;2022-12-07T12:50:27;5.70;99.90
48744;DHT22;34538;48.836;9.174;2022-12-07T12:56:23;5.70;99.90
48744;DHT22;34538;48.836;9.174;2022-12-07T12:59:25;5.70;99.90
48744;DHT22;34538;48.836;9.174;2022-12-07T13:01:55;5.70;99.90
48744;DHT22;34538;48.836;9.174;2022-12-07T13:04:38;5.70;99.90
48744;DHT22;34538;48.836;9.174;2022-12-07T13:07:13;5.70;99.90
48744;DHT22;34538;48.836;9.174;2022-12-07T13:09:43;5.70;99.90
48744;DHT22;34538;48.836;9.174;2022-12-07T13:12:14;5.80;99.90
48744;DHT22;34538;48.836;9.174;2022-12-07T13:14:57;5.70;99.90
48744;DHT22;34538;48.836;9.174;2022-12-07T13:20:49;5.70;99.90
48744;DHT22;34538;48.836;9.174;2022-12-07T13:23:27;5.70;99.90
48744;DHT22;34538;48.836;9.174;2022-12-07T13:26:03;5.70;99.90
48744;DHT22;34538;48.836;9.174;2022-12-07T13:28:35;5.70;99.90
48744;DHT22;34538;48.836;9.174;2022-12-07T13:31:13;5.70;99.90
48744;DHT22;34538;48.836;9.174;2022-12-07T13:33:43;5.70;99.90
48744;DHT22;34538;48.836;9.174;2022-12-07T13:36:18;5.60;99.90
48744;DHT22;34538;48.836;9.174;2022-12-07T13:38:53;5.60;99.90
48744;DHT22;34538;48.836;9.174;2022-12-07T13:41:21;5.60;99.90
48744;DHT22;34538;48.836;9.174;2022-12-07T13:43:51;5.50;99.90
48744;DHT22;34538;48.836;9.174;2022-12-07T13:46:23;5.50;99.90
48744;DHT22;34538;48.836;9.174;2022-12-07T13:48:51;5.50;99.90
48744;DHT22;34538;48.836;9.174;2022-12-07T13:51:20;5.50;99.90
48744;DHT22;34538;48.836;9.174;2022-12-07T13:53:51;5.50;99.90
48744;DHT22;34538;48.836;9.174;2022-12-07T13:56:20;5.50;99.90
48744;DHT22;34538;48.836;9.174;2022-12-07T13:58:47;5.50;99.90
48744;DHT22;34538;48.836;9.174;2022-12-07T14:01:14;5.60;99.90
48744;DHT22;34538;48.836;9.174;2022-12-07T14:03:41;5.60;99.90
48744;DHT22;34538;48.836;9.174;2022-12-07T14:06:25;5.60;99.90
48744;DHT22;34538;48.836;9.174;2022-12-07T14:09:08;5.70;99.90
48744;DHT22;34538;48.836;9.174;2022-12-07T14:11:35;5.70;99.90
48744;DHT22;34538;48.836;9.174;2022-12-07T14:14:05;5.70;99.90
48744;DHT22;34538;48.836;9.174;2022-12-07T14:16:34;5.70;99.90
48744;DHT22;34538;48.836;9.174;2022-12-07T14:19:04;5.70;99.90
48744;DHT22;34538;48.836;9.174;2022-12-07T14:21:32;5.70;99.90
48744;DHT22;34538;48.836;9.174;2022-12-07T14:24:12;5.70;99.90
48744;DHT22;34538;48.836;9.174;2022-12-07T14:28:52;5.80;99.90
48744;DHT22;34538;48.836;9.174;2022-12-07T14:29:59;5.70;99.90
48744;DHT22;34538;48.836;9.174;2022-12-07T14:32:27;5.80;99.90
48744;DHT22;34538;48.836;9.174;2022-12-07T14:34:56;5.70;99.90
48744;DHT22;34538;48.836;9.174;2022-12-07T14:37:23;5.70;99.90
48744;DHT22;34538;48.836;9.174;2022-12-07T14:39:52;5.60;99.90
48744;DHT22;34538;48.836;9.174;2022-12-07T14:42:19;5.60;99.90
48744;DHT22;34538;48.836;9.174;2022-12-07T14:44:46;5.60;99.90
48744;DHT22;34538;48.836;9.174;2022-12-07T14:47:13;5.60;99.90
48744;DHT22;34538;48.836;9.174;2022-12-07T14:49:40;5.50;99.90
48744;DHT22;34538;48.836;9.174;2022-12-07T14:52:13;5.50;99.90
48744;DHT22;34538;48.836;9.174;2022-12-07T14:54:42;5.50;99.90
48744;DHT22;34538;48.836;9.174;2022-12-07T14:57:13;5.50;99.90
48744;DHT22;34538;48.836;9.174;2022-12-07T14:59:40;5.50;99.90
48744;DHT22;34538;48.836;9.174;2022-12-07T15:02:11;5.50;99.90
48744;DHT22;34538;48.836;9.174;2022-12-07T15:04:38;5.40;99.90
48744;DHT22;34538;48.836;9.174;2022-12-07T15:07:09;5.40;99.90
48744;DHT22;34538;48.836;9.174;2022-12-07T15:09:37;5.40;99.90
48744;DHT22;34538;48.836;9.174;2022-12-07T15:12:04;5.40;99.90
48744;DHT22;34538;48.836;9.174;2022-12-07T15:14:33;5.30;99.90
48744;DHT22;34538;48.836;9.174;2022-12-07T15:16:59;5.30;99.90
48744;DHT22;34538;48.836;9.174;2022-12-07T15:19:27;5.30;99.90
48744;DHT22;34538;48.836;9.174;2022-12-07T15:21:54;5.30;99.90
48744;DHT22;34538;48.836;9.174;2022-12-07T15:24:21;5.30;99.90
48744;DHT22;34538;48.836;9.174;2022-12-07T15:26:49;5.20;99.90
48744;DHT22;34538;48.836;9.174;2022-12-07T15:29:17;5.20;99.90
48744;DHT22;34538;48.836;9.174;2022-12-07T15:31:45;5.20;99.90
48744;DHT22;34538;48.836;9.174;2022-12-07T15:34:12;5.10;99.90
48744;DHT22;34538;48.836;9.174;2022-12-07T15:36:39;5.10;99.90
48744;DHT22;34538;48.836;9.174;2022-12-07T15:39:06;5.00;99.90
48744;DHT22;34538;48.836;9.174;2022-12-07T15:41:33;5.00;99.90
48744;DHT22;34538;48.836;9.174;2022-12-07T15:44:01;5.00;99.90
48744;DHT22;34538;48.836;9.174;2022-12-07T15:46:47;4.90;99.90
48744;DHT22;34538;48.836;9.174;2022-12-07T15:49:16;4.90;99.90
48744;DHT22;34538;48.836;9.174;2022-12-07T15:51:43;4.80;99.90
48744;DHT22;34538;48.836;9.174;2022-12-07T15:54:18;4.80;99.90
48744;DHT22;34538;48.836;9.174;2022-12-07T15:56:45;4.80;99.90
48744;DHT22;34538;48.836;9.174;2022-12-07T15:59:12;4.70;99.90
48744;DHT22;34538;48.836;9.174;2022-12-07T16:01:39;4.70;99.90
48744;DHT22;34538;48.836;9.174;2022-12-07T16:04:08;4.60;99.90
48744;DHT22;34538;48.836;9.174;2022-12-07T16:06:35;4.60;99.90
48744;DHT22;34538;48.836;9.174;2022-12-07T16:09:02;4.60;99.90
48744;DHT22;34538;48.836;9.174;2022-12-07T16:11:29;4.60;99.90
48744;DHT22;34538;48.836;9.174;2022-12-07T16:13:56;4.50;99.90
48744;DHT22;34538;48.836;9.174;2022-12-07T16:16:23;4.50;99.90
48744;DHT22;34538;48.836;9.174;2022-12-07T16:18:50;4.40;99.90